sensor_id;sensor_type;location;lat;lon;timestamp;temperature;humidity
12847;DHT22;6492;48.128;8.320;2023-09-18T00:03:05;18.50;12.10
12847;DHT22;6492;48.128;8.320;2023-09-18T00:07:07;18.80;11.50
12847;DHT22;6492;48.128;8.320;2023-09-18T00:11:11;18.70;11.20
12847;DHT22;6492;48.128;8.320;2023-09-18T00:15:14;18.70;10.90
12847;DHT22;6492;48.128;8.320;2023-09-18T00:19:16;18.70;11.10
12847;DHT22;6492;48.128;8.320;2023-09-18T00:23:18;18.80;10.60
12847;DHT22;6492;48.128;8.320;2023-09-18T00:27:19;18.80;10.80
12847;DHT22;6492;48.128;8.320;2023-09-18T00:31:22;18.90;9.90
12847;DHT22;6492;48.128;8.320;2023-09-18T00:35:24;19.00;10.10
12847;DHT22;6492;48.128;8.320;2023-09-18T00:39:26;19.00;10.50
12847;DHT22;6492;48.128;8.320;2023-09-18T00:43:28;19.00;13.90
12847;DHT22;6492;48.128;8.320;2023-09-18T00:47:55;18.90;14.40
12847;DHT22;6492;48.128;8.320;2023-09-18T00:51:56;18.80;16.30
12847;DHT22;6492;48.128;8.320;2023-09-18T00:56:00;18.70;18.60
12847;DHT22;6492;48.128;8.320;2023-09-18T01:00:02;18.50;19.70
12847;DHT22;6492;48.128;8.320;2023-09-18T01:04:07;18.40;21.00
12847;DHT22;6492;48.128;8.320;2023-09-18T01:08:10;18.20;22.20
12847;DHT22;6492;48.128;8.320;2023-09-18T01:12:17;18.00;24.20
12847;DHT22;6492;48.128;8.320;2023-09-18T01:16:25;17.80;25.60
12847;DHT22;6492;48.128;8.320;2023-09-18T01:20:32;17.50;27.70
12847;DHT22;6492;48.128;8.320;2023-09-18T01:24:36;17.40;29.20
12847;DHT22;6492;48.128;8.320;2023-09-18T01:28:38;17.20;31.00
12847;DHT22;6492;48.128;8.320;2023-09-18T01:32:40;17.10;34.70
12847;DHT22;6492;48.128;8.320;2023-09-18T01:36:44;17.00;38.90
12847;DHT22;6492;48.128;8.320;2023-09-18T01:40:48;16.80;40.50
12847;DHT22;6492;48.128;8.320;2023-09-18T01:44:52;16.70;43.60
12847;DHT22;6492;48.128;8.320;2023-09-18T01:48:54;16.60;43.70
12847;DHT22;6492;48.128;8.320;2023-09-18T01:52:55;16.50;44.40
12847;DHT22;6492;48.128;8.320;2023-09-18T01:56:59;16.40;45.00
12847;DHT22;6492;48.128;8.320;2023-09-18T02:01:01;16.40;44.90
12847;DHT22;6492;48.128;8.320;2023-09-18T02:05:04;16.40;43.90
12847;DHT22;6492;48.128;8.320;2023-09-18T02:09:06;16.40;41.90
12847;DHT22;6492;48.128;8.320;2023-09-18T02:13:10;16.30;41.10
12847;DHT22;6492;48.128;8.320;2023-09-18T02:17:12;16.20;41.10
12847;DHT22;6492;48.128;8.320;2023-09-18T02:21:18;16.10;44.30
12847;DHT22;6492;48.128;8.320;2023-09-18T02:25:21;16.00;46.50
12847;DHT22;6492;48.128;8.320;2023-09-18T02:29:24;15.90;47.50
12847;DHT22;6492;48.128;8.320;2023-09-18T02:33:26;15.80;47.80
12847;DHT22;6492;48.128;8.320;2023-09-18T02:37:28;15.70;48.30
12847;DHT22;6492;48.128;8.320;2023-09-18T02:41:30;15.70;48.50
12847;DHT22;6492;48.128;8.320;2023-09-18T02:45:33;15.60;49.40
12847;DHT22;6492;48.128;8.320;2023-09-18T02:49:35;15.70;49.90
12847;DHT22;6492;48.128;8.320;2023-09-18T02:53:38;15.90;46.20
12847;DHT22;6492;48.128;8.320;2023-09-18T02:57:39;16.20;42.90
12847;DHT22;6492;48.128;8.320;2023-09-18T03:01:43;16.40;42.20
12847;DHT22;6492;48.128;8.320;2023-09-18T03:06:00;16.60;40.40
12847;DHT22;6492;48.128;8.320;2023-09-18T03:10:04;16.90;45.60
12847;DHT22;6492;48.128;8.320;2023-09-18T03:14:06;17.00;45.10
12847;DHT22;6492;48.128;8.320;2023-09-18T03:18:09;17.00;45.20
12847;DHT22;6492;48.128;8.320;2023-09-18T03:22:11;16.90;45.50
12847;DHT22;6492;48.128;8.320;2023-09-18T03:26:13;16.80;47.10
12847;DHT22;6492;48.128;8.320;2023-09-18T03:30:15;16.70;48.40
12847;DHT22;6492;48.128;8.320;2023-09-18T03:34:18;16.60;47.80
12847;DHT22;6492;48.128;8.320;2023-09-18T03:38:20;16.60;47.60
12847;DHT22;6492;48.128;8.320;2023-09-18T03:42:22;16.50;46.60
12847;DHT22;6492;48.128;8.320;2023-09-18T03:46:24;16.40;46.90
12847;DHT22;6492;48.128;8.320;2023-09-18T03:50:27;16.40;46.50
12847;DHT22;6492;48.128;8.320;2023-09-18T03:54:29;16.30;46.20
12847;DHT22;6492;48.128;8.320;2023-09-18T03:58:31;16.30;45.10
12847;DHT22;6492;48.128;8.320;2023-09-18T04:02:33;16.30;42.60
12847;DHT22;6492;48.128;8.320;2023-09-18T04:06:41;16.30;41.20
12847;DHT22;6492;48.128;8.320;2023-09-18T04:10:43;16.30;41.00
12847;DHT22;6492;48.128;8.320;2023-09-18T04:14:46;16.20;40.20
12847;DHT22;6492;48.128;8.320;2023-09-18T04:18:48;16.10;40.90
12847;DHT22;6492;48.128;8.320;2023-09-18T04:23:18;16.00;40.20
12847;DHT22;6492;48.128;8.320;2023-09-18T04:27:21;16.00;39.30
12847;DHT22;6492;48.128;8.320;2023-09-18T04:31:23;16.10;36.80
12847;DHT22;6492;48.128;8.320;2023-09-18T04:35:24;16.20;34.30
12847;DHT22;6492;48.128;8.320;2023-09-18T04:39:28;16.40;30.30
12847;DHT22;6492;48.128;8.320;2023-09-18T04:43:30;16.60;28.10
12847;DHT22;6492;48.128;8.320;2023-09-18T04:47:32;16.80;26.50
12847;DHT22;6492;48.128;8.320;2023-09-18T04:51:34;17.00;24.60
12847;DHT22;6492;48.128;8.320;2023-09-18T04:55:38;17.20;24.60
12847;DHT22;6492;48.128;8.320;2023-09-18T04:59:40;17.20;24.90
12847;DHT22;6492;48.128;8.320;2023-09-18T05:03:50;17.10;27.90
12847;DHT22;6492;48.128;8.320;2023-09-18T05:07:51;16.80;32.30
12847;DHT22;6492;48.128;8.320;2023-09-18T05:11:55;16.40;37.80
12847;DHT22;6492;48.128;8.320;2023-09-18T05:15:59;16.00;41.50
12847;DHT22;6492;48.128;8.320;2023-09-18T05:20:01;15.80;42.20
12847;DHT22;6492;48.128;8.320;2023-09-18T05:24:05;15.70;42.20
12847;DHT22;6492;48.128;8.320;2023-09-18T05:28:08;15.70;42.00
12847;DHT22;6492;48.128;8.320;2023-09-18T05:32:11;15.70;39.80
12847;DHT22;6492;48.128;8.320;2023-09-18T05:36:13;15.70;39.60
12847;DHT22;6492;48.128;8.320;2023-09-18T05:40:15;15.80;36.40
12847;DHT22;6492;48.128;8.320;2023-09-18T05:44:18;15.90;35.20
12847;DHT22;6492;48.128;8.320;2023-09-18T05:48:25;15.90;37.40
12847;DHT22;6492;48.128;8.320;2023-09-18T05:52:27;15.80;38.00
12847;DHT22;6492;48.128;8.320;2023-09-18T06:00:58;15.70;41.90
12847;DHT22;6492;48.128;8.320;2023-09-18T06:05:02;15.60;42.90
12847;DHT22;6492;48.128;8.320;2023-09-18T06:09:05;15.60;42.00
12847;DHT22;6492;48.128;8.320;2023-09-18T06:13:07;15.60;40.60
12847;DHT22;6492;48.128;8.320;2023-09-18T06:17:11;15.70;42.20
12847;DHT22;6492;48.128;8.320;2023-09-18T06:21:12;15.60;42.70
12847;DHT22;6492;48.128;8.320;2023-09-18T06:25:14;15.60;44.30
12847;DHT22;6492;48.128;8.320;2023-09-18T06:29:24;15.60;46.30
12847;DHT22;6492;48.128;8.320;2023-09-18T06:33:27;15.50;48.60
12847;DHT22;6492;48.128;8.320;2023-09-18T06:37:29;15.40;50.20
12847;DHT22;6492;48.128;8.320;2023-09-18T06:41:31;15.30;52.40
12847;DHT22;6492;48.128;8.320;2023-09-18T06:45:34;15.20;54.50
12847;DHT22;6492;48.128;8.320;2023-09-18T06:49:39;15.10;55.90
12847;DHT22;6492;48.128;8.320;2023-09-18T06:53:44;15.10;58.10
12847;DHT22;6492;48.128;8.320;2023-09-18T06:57:46;14.90;59.20
12847;DHT22;6492;48.128;8.320;2023-09-18T07:01:49;14.90;57.80
12847;DHT22;6492;48.128;8.320;2023-09-18T07:05:52;14.90;56.80
12847;DHT22;6492;48.128;8.320;2023-09-18T07:09:54;14.80;58.10
12847;DHT22;6492;48.128;8.320;2023-09-18T07:13:55;14.70;59.00
12847;DHT22;6492;48.128;8.320;2023-09-18T13:24:24;20.20;18.60
12847;DHT22;6492;48.128;8.320;2023-09-18T13:28:26;20.40;18.20
12847;DHT22;6492;48.128;8.320;2023-09-18T13:32:28;20.60;17.50
12847;DHT22;6492;48.128;8.320;2023-09-18T13:36:30;20.70;16.50
12847;DHT22;6492;48.128;8.320;2023-09-18T13:40:34;20.90;16.70
12847;DHT22;6492;48.128;8.320;2023-09-18T13:44:36;21.10;15.60
12847;DHT22;6492;48.128;8.320;2023-09-18T13:48:38;21.10;14.90
12847;DHT22;6492;48.128;8.320;2023-09-18T13:52:40;21.10;14.30
12847;DHT22;6492;48.128;8.320;2023-09-18T13:56:44;21.00;13.40
12847;DHT22;6492;48.128;8.320;2023-09-18T14:00:48;20.80;14.60
12847;DHT22;6492;48.128;8.320;2023-09-18T14:04:49;20.70;16.00
12847;DHT22;6492;48.128;8.320;2023-09-18T14:08:51;20.70;15.00
12847;DHT22;6492;48.128;8.320;2023-09-18T18:24:23;14.40;44.90
12847;DHT22;6492;48.128;8.320;2023-09-18T18:28:51;14.40;44.60
12847;DHT22;6492;48.128;8.320;2023-09-18T18:33:13;14.50;43.70
12847;DHT22;6492;48.128;8.320;2023-09-18T18:37:38;14.60;43.30
12847;DHT22;6492;48.128;8.320;2023-09-18T18:47:25;14.90;41.00
12847;DHT22;6492;48.128;8.320;2023-09-18T18:51:55;14.90;40.50
